Decoded Metar for KHSA (BAY ST LOUIS in MS, USA) (IATA:HSA) | Meteo·Mobile Aviation Weather
aviador You're here:

KHSA Decoded Metar

BAY ST LOUIS in MS, USA
Report Time2018-12-16 02:52:00
UTC Time2018-12-16 03:05:38
Flight Rules mvfr MVFR
Wind290° at 03 kt
W.Decomp.*RWY 36: 1.0 kt HW 2.8 kt LCW
W.Rank290° ranks 35
Current wind is below 290° avg. (5.7)
Visibility9999 m
Phenomena:N/A
Clouds:Overcast 021 Hf
Expected CloudBase > 800 ft AGL from Temp-Dew spread
Ceiling2,100 ft
Temp11°C (ISA -4)
Dew Point09°C (88% RH)
AAT9.7°C
QNH1021 hPa
Density Alt-564 ft
Elevation23 ft
Report Wrong Elevation
Raw Report
KHSA 160252Z 29003KT 7SM OVC021 11/09 A3014=

Extra information for KHSA:More info

Metar Taf Metar & Taf Last 4 Metars F.Rules Stats Wind Profile Meteogram Temp Stats Airport Information Weather charts Add Link Nearby VenuesMetar ALERT Operation Metar Decoded Social comments

AIRNAV info for KHSA